To NAV CANADA Home Page Login to a new session Search on AWWS site Feedback and Comments Disclaimer Vers la page française équivalente Tips FAQ What's new on the site To the Forecasts and Observations / NOTAM section To "File a Flight Plan" website Publications and other links Update of the User's profile FIC Telephone Numbers My Weather Data Folder Route Weather Data Regional Weather Data Local Weather Data To the Forecasts and Observations / NOTAM section
Request Generated 06/26/2017 at 22:24:41 UTC . Weather information available at that time is displayed.

METAR/TAF

CLYDE RIVER/NU    (show WxCam)

METAR CYCY 262200Z 01010KT 2 1/4SM BR OVC004 M00/M01 A2998 RMK SF8
VSBY W 15 SLP155=
SPECI CYCY 262156Z 36008KT 2 1/4SM BR OVC004 M00/M01 A2998 RMK SF8
SLP155=
METAR CYCY 262100Z 36010KT 15SM BKN004 00/M01 A2998 RMK SF7 SLP156=
METAR CYCY 262000Z 36014KT 15SM BKN004 00/M01 A2999 RMK SF7 SLP159=

TAF AMD CYCY 262202Z 2622/2707 01010KT 1/2SM FG VV002 TEMPO 2622/2707
P6SM NSW BKN006
RMK NXT FCST BY 270100Z=
Your time UTC time
Weather data provided by Environment Canada and NAV CANADA